Time;durP1;ratioP1;P1;durP2;ratioP2;P2;SDS_P1;SDS_P2;PMS_P1;PMS_P2;Temp;Humidity;BMP_temperature;BMP_pressure;BME280_temperature;BME280_humidity;BME280_pressure;Samples;Min_cycle;Max_cycle;Signal;HPM_P1;HPM_P2
2024/02/19 00:01:01;;;;;;;42.77;19.97;;;;;;;7.43;100.00;101049.53;5043486;28;20083;-77
2024/02/19 00:03:27;;;;;;;43.60;19.27;;;;;;;7.49;100.00;101059.59;5029713;28;20029;-77
2024/02/19 00:05:53;;;;;;;51.20;22.77;;;;;;;7.57;100.00;101065.09;5063441;28;20642;-77
2024/02/19 00:08:19;;;;;;;45.28;22.85;;;;;;;7.52;100.00;101054.03;5045347;28;20132;-77
2024/02/19 00:10:44;;;;;;;41.17;20.52;;;;;;;7.63;100.00;101061.88;5046013;28;20147;-78
2024/02/19 00:13:09;;;;;;;37.43;18.90;;;;;;;7.52;100.00;101043.41;5053885;28;20040;-77
2024/02/19 00:15:35;;;;;;;35.27;19.10;;;;;;;7.61;100.00;101046.09;5032777;28;20086;-78
2024/02/19 00:18:01;;;;;;;46.20;19.77;;;;;;;7.60;100.00;101054.19;5047016;28;20037;-78
2024/02/19 00:20:26;;;;;;;34.85;18.10;;;;;;;7.56;100.00;101047.47;5050026;28;20399;-76
2024/02/19 00:22:51;;;;;;;42.67;20.80;;;;;;;7.57;100.00;101047.34;5037645;28;20479;-78
2024/02/19 00:25:17;;;;;;;38.83;19.40;;;;;;;7.50;100.00;101045.38;5030482;28;20282;-77
2024/02/19 00:27:43;;;;;;;43.38;20.05;;;;;;;7.54;100.00;101054.75;5052716;28;20024;-78
2024/02/19 00:30:09;;;;;;;45.57;18.57;;;;;;;7.55;100.00;101054.59;5049930;28;20028;-78
2024/02/19 00:32:34;;;;;;;;;;;;;;;7.60;100.00;101063.00;5046806;28;20029;-77
2024/02/19 00:35:00;;;;;;;36.67;17.58;;;;;;;7.61;100.00;101055.91;5042483;28;19939;-78
2024/02/19 00:37:26;;;;;;;43.38;18.00;;;;;;;7.61;100.00;101054.06;5058519;28;20052;-78
2024/02/19 00:39:52;;;;;;;;;;;;;;;7.59;100.00;101061.34;5043054;28;20045;-77
2024/02/19 00:42:17;;;;;;;36.17;16.23;;;;;;;7.57;100.00;101052.66;5052020;28;19920;-78
2024/02/19 00:44:42;;;;;;;32.93;17.60;;;;;;;7.55;100.00;101053.75;5055351;28;20112;-78
2024/02/19 00:47:08;;;;;;;33.13;15.20;;;;;;;7.57;100.00;101052.66;5050424;28;20028;-79
2024/02/19 00:49:33;;;;;;;39.33;17.57;;;;;;;7.53;100.00;101055.72;5065735;28;20032;-78
2024/02/19 00:51:59;;;;;;;42.03;17.67;;;;;;;7.47;100.00;101041.16;5046456;28;20024;-78
2024/02/19 00:54:24;;;;;;;30.52;16.02;;;;;;;7.57;100.00;101057.97;5037281;28;20125;-78
2024/02/19 00:56:50;;;;;;;34.90;16.47;;;;;;;7.58;100.00;101053.50;5035397;28;20033;-78
2024/02/19 00:59:15;;;;;;;33.10;16.17;;;;;;;7.56;100.00;101051.00;5061208;28;20068;-78
2024/02/19 01:01:40;;;;;;;30.07;14.93;;;;;;;7.59;100.00;101057.84;5036789;28;20090;-77
2024/02/19 01:04:06;;;;;;;32.67;15.57;;;;;;;7.49;100.00;101048.97;5065437;28;20044;-77
2024/02/19 01:06:31;;;;;;;28.93;14.63;;;;;;;7.58;100.00;101062.28;5061826;28;20036;-77
2024/02/19 01:08:57;;;;;;;24.87;13.07;;;;;;;7.44;100.00;101052.03;5039872;28;20029;-77
2024/02/19 01:11:23;;;;;;;36.83;14.55;;;;;;;7.44;100.00;101057.34;5049389;28;20716;-77
2024/02/19 01:13:48;;;;;;;30.85;14.52;;;;;;;7.43;100.00;101066.31;5040665;28;20036;-78
2024/02/19 01:16:13;;;;;;;26.77;12.10;;;;;;;7.49;100.00;101065.78;5042354;28;20132;-78
2024/02/19 01:18:39;;;;;;;23.73;11.90;;;;;;;7.50;100.00;101061.31;5045579;28;20036;-77
2024/02/19 01:21:05;;;;;;;24.38;11.10;;;;;;;7.51;100.00;101063.81;5047799;28;20530;-77
2024/02/19 01:23:30;;;;;;;25.38;10.52;;;;;;;7.42;100.00;101061.97;5059695;28;20066;-77
2024/02/19 01:25:56;;;;;;;19.42;9.45;;;;;;;7.44;100.00;101069.81;5057447;28;20116;-77
2024/02/19 01:28:24;;;;;;;18.03;9.33;;;;;;;7.39;100.00;101064.91;5066913;28;20031;-77
2024/02/19 01:30:50;;;;;;;14.00;7.68;;;;;;;7.46;100.00;101081.97;5066502;28;20025;-77
2024/02/19 01:33:15;;;;;;;13.73;7.10;;;;;;;7.45;100.00;101079.47;5057672;28;20036;-77
2024/02/19 01:35:41;;;;;;;14.20;7.15;;;;;;;7.36;100.00;101075.78;5056328;28;20035;-77
2024/02/19 01:38:06;;;;;;;11.43;6.15;;;;;;;7.24;100.00;101082.19;5048386;28;20036;-78
2024/02/19 01:40:32;;;;;;;9.80;5.45;;;;;;;7.21;100.00;101083.28;5063281;28;20036;-78
2024/02/19 01:43:01;;;;;;;11.13;6.70;;;;;;;7.10;100.00;101088.69;5061159;28;20479;-77
2024/02/19 01:45:27;;;;;;;12.38;5.78;;;;;;;7.16;100.00;101098.75;5057095;28;20387;-78
2024/02/19 01:47:56;;;;;;;14.10;7.10;;;;;;;7.14;100.00;101093.59;5048446;28;20036;-78
2024/02/19 01:50:29;;;;;;;12.13;7.25;;;;;;;7.03;100.00;101091.00;5054887;28;20283;-77
2024/02/19 01:52:57;;;;;;;15.18;7.68;;;;;;;7.05;100.00;101102.34;5068689;28;20047;-77
2024/02/19 01:55:23;;;;;;;14.32;7.28;;;;;;;7.10;100.00;101099.28;5067214;28;20017;-78
2024/02/19 01:57:54;;;;;;;14.23;7.03;;;;;;;7.16;100.00;101101.41;5057630;28;20043;-78
2024/02/19 02:00:20;;;;;;;13.98;6.13;;;;;;;7.08;100.00;101091.44;5054377;28;21185;-78
2024/02/19 02:02:46;;;;;;;13.02;6.70;;;;;;;6.97;100.00;101091.53;5031174;28;20026;-77
2024/02/19 02:05:11;;;;;;;14.38;6.50;;;;;;;7.03;100.00;101091.00;5038666;28;20028;-78
2024/02/19 02:07:37;;;;;;;11.10;5.40;;;;;;;7.14;100.00;101101.56;5045640;28;20037;-78
2024/02/19 02:10:04;;;;;;;12.75;6.65;;;;;;;7.06;100.00;101097.88;5031953;28;20116;-78
2024/02/19 02:12:30;;;;;;;13.00;6.85;;;;;;;7.02;100.00;101102.59;5047210;28;20065;-76
2024/02/19 02:14:56;;;;;;;15.38;8.50;;;;;;;6.88;100.00;101095.81;5056693;28;20037;-77
2024/02/19 02:17:21;;;;;;;15.93;7.57;;;;;;;6.85;100.00;101103.19;5069171;28;20572;-78
2024/02/19 02:19:47;;;;;;;21.33;8.85;;;;;;;7.02;100.00;101105.25;5063834;28;20374;-77
2024/02/19 02:22:13;;;;;;;19.52;8.30;;;;;;;6.92;100.00;101094.56;5049153;28;20043;-78
2024/02/19 02:24:39;;;;;;;17.45;7.30;;;;;;;6.92;100.00;101110.50;5035083;28;20369;-78
2024/02/19 02:27:04;;;;;;;17.58;8.40;;;;;;;6.95;100.00;101115.56;5043241;28;20039;-78
2024/02/19 02:29:30;;;;;;;13.93;7.70;;;;;;;6.96;100.00;101124.34;5064726;28;20029;-76
2024/02/19 02:31:55;;;;;;;16.40;7.40;;;;;;;6.80;100.00;101116.84;5064845;28;20040;-77
2024/02/19 02:34:22;;;;;;;16.57;7.47;;;;;;;6.69;100.00;101108.94;5068215;28;20025;-78
2024/02/19 02:36:48;;;;;;;14.23;6.80;;;;;;;6.61;100.00;101114.06;5058349;28;20290;-77
2024/02/19 02:39:14;;;;;;;13.60;7.45;;;;;;;6.67;100.00;101121.47;5047606;28;20017;-77
2024/02/19 02:41:40;;;;;;;12.70;7.43;;;;;;;6.51;100.00;101117.47;5053029;28;20127;-77
2024/02/19 02:44:06;;;;;;;15.13;6.90;;;;;;;6.64;100.00;101119.94;5032021;28;20132;-77
2024/02/19 02:46:31;;;;;;;9.20;5.25;;;;;;;6.50;100.00;101114.94;5053262;28;20040;-77
2024/02/19 02:48:56;;;;;;;9.97;5.37;;;;;;;6.47;100.00;101115.19;5043198;28;20135;-78
2024/02/19 02:51:22;;;;;;;9.48;4.35;;;;;;;6.55;100.00;101126.88;5063919;28;20039;-77
2024/02/19 02:53:47;;;;;;;8.83;4.63;;;;;;;6.51;100.00;101122.78;5063568;28;20721;-77
2024/02/19 02:56:20;;;;;;;6.20;4.00;;;;;;;6.45;100.00;101131.22;5067060;28;20285;-77
2024/02/19 02:58:46;;;;;;;8.45;4.93;;;;;;;6.49;100.00;101135.31;5067076;28;20036;-78
2024/02/19 03:01:21;;;;;;;7.20;4.28;;;;;;;6.34;100.00;101124.16;5062976;28;20016;-77
2024/02/19 03:03:47;;;;;;;6.95;4.47;;;;;;;6.41;100.00;101139.56;5066839;28;20032;-77
2024/02/19 03:06:12;;;;;;;7.63;4.18;;;;;;;6.55;100.00;101134.81;5066622;28;20024;-78
2024/02/19 03:08:38;;;;;;;9.05;5.30;;;;;;;6.54;100.00;101137.59;5063554;28;20057;-78
2024/02/19 03:11:05;;;;;;;7.47;4.43;;;;;;;6.49;100.00;101135.31;5047866;28;20617;-77
2024/02/19 03:13:30;;;;;;;11.05;4.80;;;;;;;6.44;100.00;101136.66;5043368;28;20031;-77
2024/02/19 03:15:56;;;;;;;9.05;3.92;;;;;;;6.28;100.00;101121.16;5066615;28;20403;-77
2024/02/19 03:18:21;;;;;;;8.47;3.77;;;;;;;6.41;100.00;101140.41;5067873;28;20025;-77
2024/02/19 03:20:47;;;;;;;8.80;5.35;;;;;;;6.40;100.00;101140.53;5049843;28;20039;-77
2024/02/19 03:23:12;;;;;;;11.15;5.05;;;;;;;6.45;100.00;101141.00;5064879;28;20024;-78
2024/02/19 03:25:38;;;;;;;9.82;4.50;;;;;;;6.33;100.00;101124.28;5061738;28;20511;-77
2024/02/19 03:28:03;;;;;;;8.20;4.60;;;;;;;6.54;100.00;101150.84;5066395;28;20509;-77
2024/02/19 03:30:30;;;;;;;11.20;4.82;;;;;;;6.42;100.00;101149.22;5049504;28;20283;-78
2024/02/19 03:32:56;;;;;;;8.57;5.10;;;;;;;6.30;100.00;101151.91;5040582;28;20048;-76
2024/02/19 03:35:21;;;;;;;10.93;5.78;;;;;;;6.27;100.00;101152.13;5066411;28;20023;-77
2024/02/19 03:37:46;;;;;;;8.97;4.73;;;;;;;6.24;100.00;101141.78;5067476;28;20119;-77
2024/02/19 03:40:12;;;;;;;8.03;4.60;;;;;;;6.32;100.00;101163.22;5059919;28;20029;-78
2024/02/19 03:42:37;;;;;;;11.05;4.82;;;;;;;6.22;100.00;101159.63;5061097;28;20025;-78
2024/02/19 03:45:07;;;;;;;12.00;5.25;;;;;;;6.24;100.00;101168.28;5047493;28;20040;-77
2024/02/19 03:47:34;;;;;;;14.50;5.22;;;;;;;6.30;100.00;101178.41;5041519;28;20538;-77
2024/02/19 03:49:59;;;;;;;12.50;5.50;;;;;;;6.41;100.00;101182.00;5049631;28;20020;-77
2024/02/19 03:52:24;;;;;;;8.88;5.15;;;;;;;6.33;100.00;101175.50;5046260;28;20684;-77
2024/02/19 03:54:50;;;;;;;8.63;4.73;;;;;;;6.29;100.00;101168.75;5050737;28;20116;-77
2024/02/19 03:57:15;;;;;;;11.47;4.87;;;;;;;6.13;100.00;101171.81;5060036;28;20025;-77
2024/02/19 03:59:40;;;;;;;8.60;4.93;;;;;;;6.17;100.00;101179.53;5060501;28;20028;-77
2024/02/19 04:02:06;;;;;;;9.70;4.23;;;;;;;6.19;100.00;101188.22;5051892;28;20319;-77
2024/02/19 04:04:31;;;;;;;11.47;4.27;;;;;;;6.16;100.00;101191.94;5043360;28;20052;-77
2024/02/19 04:06:56;;;;;;;9.07;4.73;;;;;;;6.17;100.00;101200.72;5044564;28;20041;-77
2024/02/19 04:09:22;;;;;;;12.00;4.73;;;;;;;5.89;100.00;101190.47;5049020;28;20032;-77
2024/02/19 04:11:47;;;;;;;10.40;4.67;;;;;;;6.14;100.00;101209.78;5060851;28;20024;-76
2024/02/19 04:14:12;;;;;;;7.32;3.47;;;;;;;6.01;100.00;101193.16;5064758;28;20638;-78
2024/02/19 04:16:42;;;;;;;8.77;4.80;;;;;;;5.97;100.00;101202.31;5040323;28;20020;-77
2024/02/19 04:19:07;;;;;;;8.45;3.70;;;;;;;6.10;100.00;101201.22;5036866;28;20514;-77
2024/02/19 04:21:32;;;;;;;8.17;3.63;;;;;;;6.03;100.00;101191.22;5038145;28;20025;-77
2024/02/19 04:23:58;;;;;;;8.67;4.23;;;;;;;6.12;100.00;101201.94;5037269;28;20045;-77
2024/02/19 04:26:23;;;;;;;5.77;3.43;;;;;;;5.88;100.00;101186.16;5053935;28;20289;-77
2024/02/19 04:28:49;;;;;;;8.30;3.67;;;;;;;6.04;100.00;101199.06;5049072;28;20029;-77
2024/02/19 04:31:14;;;;;;;6.33;3.87;;;;;;;5.89;100.00;101195.78;5058457;28;20297;-77
2024/02/19 04:33:43;;;;;;;13.13;4.67;;;;;;;6.01;100.00;101206.41;5065500;28;20044;-77
2024/02/19 04:36:09;;;;;;;7.60;4.28;;;;;;;6.02;100.00;101222.19;5042950;28;20144;-77
2024/02/19 04:38:34;;;;;;;8.37;4.43;;;;;;;5.88;100.00;101207.34;5060758;28;20518;-77
2024/02/19 04:40:59;;;;;;;7.10;4.00;;;;;;;5.96;100.00;101213.88;5048609;28;20283;-76
2024/02/19 04:43:25;;;;;;;7.73;3.80;;;;;;;5.96;100.00;101216.53;5057506;28;20039;-77
2024/02/19 04:45:50;;;;;;;7.23;4.57;;;;;;;6.06;100.00;101225.44;5033693;28;20036;-77
2024/02/19 04:48:15;;;;;;;8.23;4.60;;;;;;;5.96;100.00;101217.38;5058759;28;20041;-77
2024/02/19 04:50:41;;;;;;;9.37;6.00;;;;;;;5.88;100.00;101217.94;5049072;28;20029;-77
2024/02/19 04:53:06;;;;;;;12.32;6.35;;;;;;;5.84;100.00;101220.97;5051414;28;20267;-78
2024/02/19 04:55:32;;;;;;;11.27;6.75;;;;;;;5.85;100.00;101223.50;5066412;28;20499;-77
2024/02/19 04:57:57;;;;;;;12.13;7.10;;;;;;;5.85;100.00;101228.81;5059357;28;20032;-77
2024/02/19 05:00:22;;;;;;;10.13;6.00;;;;;;;5.80;100.00;101228.28;5058336;28;20322;-78
2024/02/19 05:02:48;;;;;;;11.33;5.67;;;;;;;5.65;100.00;101216.25;5027972;28;20029;-78
2024/02/19 05:05:13;;;;;;;8.50;5.60;;;;;;;5.86;100.00;101227.81;5056681;28;20277;-77
2024/02/19 05:07:39;;;;;;;9.85;5.60;;;;;;;5.71;100.00;101210.47;5054525;28;20880;-77
2024/02/19 05:10:04;;;;;;;9.93;5.27;;;;;;;5.50;100.00;101197.94;5056491;28;20045;-78
2024/02/19 05:12:30;;;;;;;7.95;4.85;;;;;;;5.47;100.00;101200.81;5033217;28;20085;-77
2024/02/19 05:14:55;;;;;;;10.98;5.10;;;;;;;5.54;100.00;101205.66;5064485;28;20093;-77
2024/02/19 05:17:21;;;;;;;7.67;4.07;;;;;;;5.57;100.00;101208.91;5052099;28;20032;-77
2024/02/19 05:19:46;;;;;;;7.03;3.78;;;;;;;5.57;100.00;101206.25;5068920;28;20354;-77
2024/02/19 05:22:12;;;;;;;7.47;3.33;;;;;;;5.60;100.00;101189.28;5068381;28;20050;-77
2024/02/19 05:24:37;;;;;;;5.82;3.05;;;;;;;5.67;100.00;101180.72;5062185;28;20016;-77
2024/02/19 05:27:03;;;;;;;8.93;4.17;;;;;;;5.69;100.00;101186.75;5059346;28;20487;-77
2024/02/19 05:29:29;;;;;;;7.82;3.58;;;;;;;5.57;100.00;101173.63;5051451;28;20021;-77
2024/02/19 05:31:54;;;;;;;7.22;3.17;;;;;;;5.51;100.00;101174.94;5051369;28;20526;-77
2024/02/19 05:34:20;;;;;;;6.03;2.83;;;;;;;5.39;100.00;101178.56;5067598;28;20744;-76
2024/02/19 05:36:45;;;;;;;5.60;2.97;;;;;;;5.56;100.00;101198.44;5060916;28;20029;-77
2024/02/19 05:39:10;;;;;;;4.07;2.67;;;;;;;5.55;100.00;101178.19;5067003;28;20024;-78
2024/02/19 05:41:37;;;;;;;4.63;2.53;;;;;;;5.48;100.00;101183.13;5045469;28;20036;-79
2024/02/19 05:44:02;;;;;;;4.53;2.03;;;;;;;5.37;100.00;101172.53;5050811;28;20317;-77
2024/02/19 05:46:28;;;;;;;3.05;1.88;;;;;;;5.67;100.00;101193.16;5059627;28;20055;-77
2024/02/19 05:48:53;;;;;;;4.23;2.53;;;;;;;5.75;100.00;101192.53;5052655;28;20574;-78
2024/02/19 05:51:18;;;;;;;2.70;2.10;;;;;;;5.70;100.00;101188.44;5060914;28;20279;-77
2024/02/19 05:53:44;;;;;;;6.50;2.47;;;;;;;5.47;100.00;101166.38;5056634;28;20044;-77
2024/02/19 05:56:09;;;;;;;3.67;2.50;;;;;;;5.71;100.00;101187.50;5052186;28;20036;-78
2024/02/19 05:58:37;;;;;;;6.25;2.50;;;;;;;5.55;100.00;101186.13;5033858;28;20041;-77
2024/02/19 06:01:03;;;;;;;6.68;3.00;;;;;;;5.76;100.00;101202.16;5050110;28;20099;-77
2024/02/19 06:03:30;;;;;;;6.13;2.53;;;;;;;5.67;100.00;101190.50;5050320;28;20186;-77
2024/02/19 06:05:55;;;;;;;5.45;3.08;;;;;;;5.71;100.00;101208.69;5047639;28;20111;-77
2024/02/19 06:08:20;;;;;;;8.97;3.20;;;;;;;5.57;100.00;101195.66;5051698;28;20111;-77
2024/02/19 06:10:46;;;;;;;7.07;2.97;;;;;;;5.75;100.00;101222.53;5033837;28;20295;-76
2024/02/19 06:13:12;;;;;;;5.47;3.07;;;;;;;5.68;100.00;101213.38;5044211;28;20031;-77
2024/02/19 06:15:37;;;;;;;7.45;3.85;;;;;;;5.67;100.00;101230.22;5052902;28;20373;-77
2024/02/19 06:18:03;;;;;;;7.10;3.15;;;;;;;5.55;100.00;101218.78;5040503;28;20496;-78
2024/02/19 06:20:28;;;;;;;7.75;3.15;;;;;;;5.65;100.00;101240.09;5049153;28;20122;-77
2024/02/19 06:22:54;;;;;;;4.72;2.75;;;;;;;5.68;100.00;101245.16;5035973;28;20042;-76
2024/02/19 06:25:20;;;;;;;2.67;1.90;;;;;;;5.57;100.00;101250.44;5044340;28;20072;-75
2024/02/19 06:27:45;;;;;;;3.47;2.63;;;;;;;5.60;100.00;101255.50;5045245;28;20135;-77
2024/02/19 06:30:11;;;;;;;6.32;1.58;;;;;;;5.52;100.00;101242.00;5033605;28;20131;-76
2024/02/19 06:32:36;;;;;;;4.38;2.08;;;;;;;5.55;100.00;101237.31;5032474;28;20036;-76
2024/02/19 06:35:02;;;;;;;4.17;1.00;;;;;;;5.54;100.00;101242.72;5033211;28;20124;-77
2024/02/19 06:37:27;;;;;;;2.00;1.15;;;;;;;5.63;100.00;101257.91;5050327;28;20278;-77
2024/02/19 06:39:52;;;;;;;1.87;1.33;;;;;;;5.72;100.00;101258.03;5044035;28;20044;-76
2024/02/19 06:42:19;;;;;;;1.77;1.10;;;;;;;5.34;100.00;101237.16;5046637;28;20027;-77
2024/02/19 06:44:44;;;;;;;1.92;1.58;;;;;;;5.43;100.00;101255.00;5049215;28;20340;-76
2024/02/19 06:47:13;;;;;;;2.65;1.17;;;;;;;5.42;100.00;101263.03;5047848;28;20036;-76
2024/02/19 06:49:38;;;;;;;4.07;1.45;;;;;;;5.48;100.00;101281.13;5051477;28;20025;-77
2024/02/19 06:52:03;;;;;;;1.90;1.45;;;;;;;5.57;100.00;101303.41;5052054;28;20786;-76
2024/02/19 06:54:29;;;;;;;2.13;1.52;;;;;;;5.69;100.00;101310.44;5034278;28;20511;-76
2024/02/19 06:56:54;;;;;;;2.70;1.83;;;;;;;5.67;100.00;101318.50;5058577;28;20112;-76
2024/02/19 06:59:19;;;;;;;3.77;2.07;;;;;;;5.71;100.00;101319.09;5053420;28;20281;-75
2024/02/19 07:01:45;;;;;;;2.73;1.50;;;;;;;5.72;100.00;101320.78;5052129;28;20112;-75
2024/02/19 07:04:11;;;;;;;7.80;2.27;;;;;;;5.63;100.00;101324.97;5053256;28;20024;-77
2024/02/19 07:06:37;;;;;;;4.47;1.92;;;;;;;5.64;100.00;101315.22;5055934;28;20036;-76
2024/02/19 07:09:02;;;;;;;3.08;1.17;;;;;;;5.55;100.00;101335.31;5068621;28;20032;-77
2024/02/19 07:11:28;;;;;;;5.60;1.60;;;;;;;5.49;100.00;101323.38;5055368;28;20096;-77
2024/02/19 07:13:55;;;;;;;2.57;0.70;;;;;;;5.69;100.00;101337.78;5030613;28;20036;-76
2024/02/19 07:16:23;;;;;;;1.70;0.77;;;;;;;5.65;100.00;101346.91;5054039;28;20379;-77
2024/02/19 07:18:49;;;;;;;1.63;1.05;;;;;;;5.59;100.00;101357.94;5046162;28;20021;-76
2024/02/19 07:21:16;;;;;;;1.88;0.95;;;;;;;5.65;100.00;101365.44;5051467;28;20098;-77
2024/02/19 07:23:42;;;;;;;3.88;1.20;;;;;;;5.66;100.00;101377.72;5050327;28;20025;-76
2024/02/19 07:26:07;;;;;;;2.00;1.23;;;;;;;5.66;100.00;101377.72;5036469;28;20477;-76
2024/02/19 07:28:33;;;;;;;1.35;1.17;;;;;;;5.67;100.00;101400.63;5022944;28;20053;-77
2024/02/19 07:30:58;;;;;;;2.38;2.13;;;;;;;5.74;100.00;101398.38;5040604;28;20049;-75
2024/02/19 07:33:23;;;;;;;1.57;1.03;;;;;;;5.74;100.00;101411.63;5034525;28;20164;-76
2024/02/19 07:35:49;;;;;;;4.17;1.53;;;;;;;5.81;100.00;101415.50;5051292;28;20496;-76
2024/02/19 07:38:15;;;;;;;2.57;1.63;;;;;;;5.81;100.00;101418.13;5043313;28;20295;-75
2024/02/19 07:40:40;;;;;;;1.65;1.25;;;;;;;5.70;100.00;101423.38;5032943;28;20263;-77
2024/02/19 07:43:06;;;;;;;2.28;1.88;;;;;;;5.76;100.00;101436.19;5042053;28;20033;-76
2024/02/19 07:45:31;;;;;;;2.60;1.40;;;;;;;5.74;100.00;101430.16;5052327;28;20403;-77
2024/02/19 07:47:57;;;;;;;3.30;1.65;;;;;;;5.78;100.00;101434.25;5046983;28;20127;-75
2024/02/19 07:50:22;;;;;;;2.33;1.30;;;;;;;5.69;100.00;101437.59;5049330;28;20040;-76
2024/02/19 07:52:47;;;;;;;1.53;1.10;;;;;;;5.98;100.00;101463.75;5056171;28;20027;-77
2024/02/19 07:55:13;;;;;;;1.35;1.00;;;;;;;5.77;100.00;101437.88;5049163;28;20655;-76
2024/02/19 07:57:38;;;;;;;1.73;1.05;;;;;;;5.85;100.00;101463.78;5041337;28;20028;-77
2024/02/19 08:00:05;;;;;;;0.90;0.80;;;;;;;5.75;100.00;101453.03;5045161;28;20498;-77
2024/02/19 08:02:30;;;;;;;4.60;0.90;;;;;;;5.63;100.00;101453.94;5035359;28;20378;-76
2024/02/19 08:04:56;;;;;;;3.88;1.13;;;;;;;5.79;100.00;101462.44;5046167;28;20399;-75
2024/02/19 08:07:21;;;;;;;2.85;0.93;;;;;;;5.90;100.00;101470.47;5048976;28;20020;-77
2024/02/19 08:09:47;;;;;;;2.93;1.10;;;;;;;6.02;100.00;101486.44;5049948;28;20032;-77
2024/02/19 08:12:12;;;;;;;1.50;1.07;;;;;;;6.05;100.00;101470.28;5039883;28;20114;-76
2024/02/19 08:14:38;;;;;;;3.22;1.00;;;;;;;6.06;100.00;101479.94;5042960;28;20290;-77
2024/02/19 08:17:03;;;;;;;2.05;0.90;;;;;;;6.12;100.00;101490.09;5041351;28;20072;-77
2024/02/19 08:19:29;;;;;;;2.28;1.38;;;;;;;6.12;100.00;101484.78;5049648;28;20040;-76
2024/02/19 08:21:57;;;;;;;2.07;1.30;;;;;;;6.07;100.00;101484.28;5042399;28;20442;-75
2024/02/19 08:24:23;;;;;;;1.90;1.00;;;;;;;6.21;100.00;101486.75;5042988;28;20395;-76
2024/02/19 08:26:48;;;;;;;1.08;0.85;;;;;;;6.20;100.00;101494.78;5056849;28;20664;-76
2024/02/19 08:29:14;;;;;;;3.45;1.13;;;;;;;6.34;100.00;101494.59;5066900;28;20044;-74
2024/02/19 08:31:40;;;;;;;1.58;1.17;;;;;;;6.36;100.00;101494.50;5049927;28;20075;-75
2024/02/19 08:34:05;;;;;;;1.48;0.73;;;;;;;6.33;100.00;101492.91;5042006;28;20033;-76
2024/02/19 08:36:32;;;;;;;1.70;0.90;;;;;;;6.46;100.00;101492.81;5024941;28;20087;-76
2024/02/19 08:38:58;;;;;;;1.13;1.00;;;;;;;6.48;100.00;101489.06;5048244;28;20029;-77
2024/02/19 08:41:24;;;;;;;1.02;0.68;;;;;;;6.56;100.00;101491.16;5048201;28;20468;-76
2024/02/19 08:43:49;;;;;;;1.63;0.70;;;;;;;6.50;100.00;101476.53;5053780;28;20036;-75
2024/02/19 08:46:15;;;;;;;2.17;0.80;;;;;;;6.57;100.00;101481.38;5049804;28;20087;-76
2024/02/19 08:48:40;;;;;;;2.28;0.55;;;;;;;6.49;100.00;101481.97;5031534;28;20520;-76
2024/02/19 08:51:06;;;;;;;0.40;0.40;;;;;;;6.71;100.00;101503.22;5049004;28;20048;-77
2024/02/19 08:53:32;;;;;;;4.28;1.80;;;;;;;6.84;100.00;101499.63;5048362;28;20096;-76
2024/02/19 08:55:57;;;;;;;2.93;0.67;;;;;;;6.82;100.00;101490.94;5047620;28;20052;-76
2024/02/19 08:58:23;;;;;;;2.10;0.68;;;;;;;6.79;100.00;101480.56;5042833;28;20039;-76
2024/02/19 09:00:49;;;;;;;2.25;0.95;;;;;;;6.91;100.00;101492.88;5024841;28;20035;-77
2024/02/19 09:03:14;;;;;;;1.42;0.68;;;;;;;6.97;100.00;101482.59;5039207;28;20580;-75
2024/02/19 09:05:39;;;;;;;0.67;0.60;;;;;;;7.11;100.00;101481.50;5016798;28;20033;-75
2024/02/19 09:08:05;;;;;;;1.47;0.50;;;;;;;7.02;100.00;101473.44;5046021;28;20037;-75
2024/02/19 09:10:31;;;;;;;0.80;0.60;;;;;;;6.99;100.00;101471.88;5051066;28;20024;-77
2024/02/19 09:12:56;;;;;;;1.88;0.60;;;;;;;7.02;100.00;101481.41;5029102;28;20045;-77
2024/02/19 09:15:22;;;;;;;1.75;0.88;;;;;;;7.11;100.00;101476.19;5040389;28;20012;-77
2024/02/19 09:17:48;;;;;;;0.63;0.50;;;;;;;7.11;100.00;101470.88;5050227;28;20489;-77
2024/02/19 09:20:13;;;;;;;;;;;;;;;7.31;100.00;101487.91;5056816;28;20033;-77
2024/02/19 09:22:41;;;;;;;1.02;0.40;;;;;;;7.31;100.00;101473.78;5043554;28;20459;-75
2024/02/19 09:25:07;;;;;;;1.05;0.45;;;;;;;7.25;100.00;101461.81;5055036;28;20376;-78
2024/02/19 09:27:32;;;;;;;1.75;0.35;;;;;;;7.37;100.00;101470.63;5056114;28;20094;-77
2024/02/19 09:29:58;;;;;;;0.43;0.30;;;;;;;7.67;100.00;101475.25;5049962;28;20067;-77
2024/02/19 09:32:23;;;;;;;0.90;0.33;;;;;;;8.05;100.00;101463.25;5048979;28;20039;-78
2024/02/19 09:34:48;;;;;;;0.37;0.20;;;;;;;7.79;100.00;101414.91;5024522;28;20139;-77
2024/02/19 09:37:14;;;;;;;1.47;0.57;;;;;;;7.86;100.00;101413.41;5050409;28;20040;-77
2024/02/19 09:39:40;;;;;;;0.60;0.20;;;;;;;7.68;100.00;101388.38;5064553;28;20091;-75
2024/02/19 09:42:08;;;;;;;0.60;0.30;;;;;;;7.67;100.00;101376.06;5064950;28;20047;-77
2024/02/19 09:44:34;;;;;;;0.98;0.30;;;;;;;7.49;100.00;101368.69;5047061;28;20888;-78
2024/02/19 09:47:04;;;;;;;3.25;0.52;;;;;;;7.88;100.00;101395.53;5042644;28;20485;-76
2024/02/19 09:49:31;;;;;;;0.77;0.43;;;;;;;7.63;100.00;101361.34;5050013;28;20103;-75
2024/02/19 09:52:02;;;;;;;2.15;0.40;;;;;;;7.77;100.00;101388.47;5048274;28;20419;-76
2024/02/19 09:54:28;;;;;;;0.85;0.35;;;;;;;7.60;100.00;101387.19;5043660;28;20111;-77
2024/02/19 09:56:54;;;;;;;0.57;0.40;;;;;;;7.71;100.00;101393.47;5053095;28;20044;-77
2024/02/19 09:59:20;;;;;;;2.72;0.30;;;;;;;7.99;100.00;101435.34;5053749;28;20039;-77
2024/02/19 10:01:45;;;;;;;0.65;0.30;;;;;;;7.90;100.00;101422.84;5034110;28;20037;-77
2024/02/19 10:04:14;;;;;;;0.93;0.50;;;;;;;8.11;100.00;101437.97;5049868;28;20072;-76
2024/02/19 10:06:40;;;;;;;0.80;0.60;;;;;;;8.13;100.00;101428.88;5030513;28;20756;-76
2024/02/19 10:09:09;;;;;;;1.73;0.70;;;;;;;7.96;100.00;101410.81;5043027;28;20036;-78
2024/02/19 10:11:38;;;;;;;1.27;0.40;;;;;;;8.07;100.00;101436.53;5045263;28;20044;-74
2024/02/19 10:14:04;;;;;;;2.05;0.70;;;;;;;8.23;100.00;101442.25;5068770;28;20118;-77
2024/02/19 10:16:30;;;;;;;1.40;0.52;;;;;;;8.19;100.00;101424.84;5045128;28;20488;-76
2024/02/19 10:19:05;;;;;;;0.22;0.22;;;;;;;8.34;100.00;101439.50;5049937;28;20052;-77
2024/02/19 10:21:30;;;;;;;2.38;0.80;;;;;;;8.39;100.00;101428.47;5061796;28;20032;-76
2024/02/19 10:23:56;;;;;;;0.23;0.20;;;;;;;8.56;100.00;101427.88;5046989;28;20052;-78
2024/02/19 10:26:21;;;;;;;4.03;0.60;;;;;;;8.81;100.00;101425.78;5043861;28;20055;-77
2024/02/19 10:28:46;;;;;;;2.45;0.70;;;;;;;8.72;100.00;101379.50;5037425;28;20032;-77
2024/02/19 10:31:13;;;;;;;3.70;0.63;;;;;;;8.63;100.00;101354.50;5044095;28;20037;-77
2024/02/19 10:33:41;;;;;;;1.23;0.60;;;;;;;8.76;100.00;101366.75;5060297;28;20060;-75
2024/02/19 10:36:07;;;;;;;1.30;0.43;;;;;;;9.19;100.00;101361.09;5032065;28;20115;-77
2024/02/19 10:38:33;;;;;;;5.13;0.77;;;;;;;9.04;100.00;101317.22;5061385;28;20078;-78
2024/02/19 10:40:58;;;;;;;3.58;0.70;;;;;;;9.55;100.00;101332.06;5062229;28;20471;-77
2024/02/19 10:43:24;;;;;;;1.17;0.60;;;;;;;9.93;100.00;101296.50;5060398;28;20052;-75
2024/02/19 10:45:50;;;;;;;2.00;0.70;;;;;;;10.09;100.00;101220.31;5053350;28;20031;-76
2024/02/19 10:48:17;;;;;;;1.90;0.80;;;;;;;9.85;100.00;101128.34;5043627;28;20121;-78
2024/02/19 10:50:42;;;;;;;35.60;8.70;;;;;;;9.90;100.00;101167.91;5056370;28;20048;-77
2024/02/19 10:53:07;;;;;;;49.83;15.53;;;;;;;9.84;100.00;101163.19;5052311;28;20040;-76
2024/02/19 10:55:35;;;;;;;47.83;15.60;;;;;;;10.25;100.00;101128.97;5060342;28;20013;-77
2024/02/19 10:58:01;;;;;;;26.98;7.32;;;;;;;10.74;100.00;101130.28;5048355;28;20036;-76
2024/02/19 11:00:27;;;;;;;25.07;5.03;;;;;;;11.49;100.00;101040.72;5042552;28;20095;-77
2024/02/19 11:03:07;;;;;;;1.90;0.55;;;;;;;11.68;100.00;100834.50;5068558;28;20048;-77
2024/02/19 11:05:37;;;;;;;6.72;2.33;;;;;;;11.84;100.00;100748.91;5066985;28;20472;-77
2024/02/19 11:08:04;;;;;;;1.90;1.17;;;;;;;12.44;100.00;100690.50;5053083;28;20388;-77
2024/02/19 11:10:43;;;;;;;3.92;1.00;;;;;;;11.92;100.00;100477.06;5050336;28;20535;-75
2024/02/19 11:13:11;;;;;;;4.68;0.80;;;;;;;12.08;100.00;100466.25;5043083;28;20037;-77
2024/02/19 11:15:43;;;;;;;7.18;1.52;;;;;;;11.53;100.00;100371.81;5051280;28;20039;-77